< < Back
Terminal Aerodrome Forecast


Current Version              Previous Versions:   1  2  3  4  5  6  7  8  9  

Terminal Aerodrome Forecast

220
FTUS42 KJAX 010500
TAFGNV
TAF
KGNV 010525Z 0106/0206 VRB03KT P6SM FEW030 SCT250
     FM011400 23004KT P6SM FEW030 SCT250
     FM012000 22005KT P6SM VCTS SCT050CB BKN250
     FM020100 12003KT P6SM SCT050 SCT250=

Latest METAR

587
SAUS70 KWBC 010456
MTRGNV
METAR KGNV 010453Z AUTO VRB05KT 10SM FEW015 SCT020 25/24 A2998 RMK AO2
SLP150 T02500239 403280189


USA.gov is the U.S. government's official web portal to all federal, state and local government web resources and services.